Time;durP1;ratioP1;P1;durP2;ratioP2;P2;SDS_P1;SDS_P2;PMS_P1;PMS_P2;Temp;Humidity;BMP_temperature;BMP_pressure;BME280_temperature;BME280_humidity;BME280_pressure;Samples;Min_cycle;Max_cycle;Signal;HPM_P1;HPM_P2
2022/03/08 00:02:25;;;;;;;13.82;8.70;;;;;;;;;;5040743;28;20021;-65
2022/03/08 00:04:52;;;;;;;14.60;10.23;;;;;;;;;;5052600;28;20060;-66
2022/03/08 00:07:18;;;;;;;13.50;8.93;;;;;;;;;;5053465;28;20025;-68
2022/03/08 00:09:44;;;;;;;14.13;9.00;;;;;;;;;;5053478;28;20028;-68
2022/03/08 00:12:10;;;;;;;16.10;10.27;;;;;;;;;;5053384;28;20485;-68
2022/03/08 00:14:36;;;;;;;15.02;9.00;;;;;;;;;;5047139;28;20036;-69
2022/03/08 00:17:03;;;;;;;14.13;9.80;;;;;;;;;;5036506;28;20021;-65
2022/03/08 00:19:29;;;;;;;15.95;9.60;;;;;;;;;;5049570;28;20097;-68
2022/03/08 00:21:56;;;;;;;14.80;8.38;;;;;;;;;;5053225;28;20048;-66
2022/03/08 00:24:22;;;;;;;12.65;8.32;;;;;;;;;;5053340;28;20032;-70
2022/03/08 00:26:48;;;;;;;15.27;8.43;;;;;;;;;;5053086;28;20104;-69
2022/03/08 00:29:14;;;;;;;13.98;8.18;;;;;;;;;;5053036;28;20037;-71
2022/03/08 00:31:40;;;;;;;10.07;7.07;;;;;;;;;;5053490;28;20021;-71
2022/03/08 00:34:06;;;;;;;12.75;7.88;;;;;;;;;;5059937;28;20487;-72
2022/03/08 00:36:33;;;;;;;12.30;7.57;;;;;;;;;;5049729;28;20048;-72
2022/03/08 00:38:59;;;;;;;12.98;7.82;;;;;;;;;;5033013;28;20041;-69
2022/03/08 00:41:25;;;;;;;12.82;7.25;;;;;;;;;;5033029;28;20037;-67
2022/03/08 00:43:51;;;;;;;11.70;7.70;;;;;;;;;;5033029;28;20021;-70
2022/03/08 00:46:17;;;;;;;13.77;8.10;;;;;;;;;;5032845;28;20024;-66
2022/03/08 00:48:44;;;;;;;10.77;7.05;;;;;;;;;;5032867;28;20128;-69
2022/03/08 00:51:11;;;;;;;12.88;7.88;;;;;;;;;;5032917;28;20030;-66
2022/03/08 00:53:37;;;;;;;11.65;6.68;;;;;;;;;;5036047;28;20032;-69
2022/03/08 00:56:03;;;;;;;13.05;7.35;;;;;;;;;;5052566;28;20027;-66
2022/03/08 00:58:29;;;;;;;11.18;6.88;;;;;;;;;;5052388;28;20074;-65
2022/03/08 01:00:55;;;;;;;10.75;6.40;;;;;;;;;;5052523;28;20017;-67
2022/03/08 01:03:21;;;;;;;10.52;6.80;;;;;;;;;;5068028;28;20128;-63
2022/03/08 01:05:47;;;;;;;10.63;6.85;;;;;;;;;;5052420;28;20017;-66
2022/03/08 01:08:14;;;;;;;12.50;6.93;;;;;;;;;;5052395;28;20511;-68
2022/03/08 01:10:41;;;;;;;11.57;7.13;;;;;;;;;;5051276;28;20028;-64
2022/03/08 01:13:07;;;;;;;11.82;7.50;;;;;;;;;;5052507;28;20594;-66
2022/03/08 01:15:33;;;;;;;11.77;6.63;;;;;;;;;;5051857;28;20021;-67
2022/03/08 01:18:00;;;;;;;11.65;7.05;;;;;;;;;;5067527;28;20021;-65
2022/03/08 01:20:27;;;;;;;12.27;7.10;;;;;;;;;;5052251;28;20021;-67
2022/03/08 01:22:54;;;;;;;11.48;6.90;;;;;;;;;;5052286;28;20487;-67
2022/03/08 01:25:20;;;;;;;9.90;6.53;;;;;;;;;;5052152;28;20476;-68
2022/03/08 01:27:47;;;;;;;11.32;6.10;;;;;;;;;;5052156;28;20483;-67
2022/03/08 01:30:13;;;;;;;9.27;5.80;;;;;;;;;;5052194;28;20032;-65
2022/03/08 01:32:40;;;;;;;14.30;6.10;;;;;;;;;;5052134;28;20499;-64
2022/03/08 01:35:06;;;;;;;11.90;6.47;;;;;;;;;;5052099;28;20074;-65
2022/03/08 01:37:32;;;;;;;10.35;6.22;;;;;;;;;;5051627;28;20017;-68
2022/03/08 01:39:58;;;;;;;10.45;6.50;;;;;;;;;;5035097;28;20119;-68
2022/03/08 01:42:25;;;;;;;8.48;5.78;;;;;;;;;;5032017;28;20022;-66
2022/03/08 01:44:52;;;;;;;10.73;6.45;;;;;;;;;;5032120;28;20029;-66
2022/03/08 01:47:22;;;;;;;12.85;6.50;;;;;;;;;;5032026;28;20021;-69
2022/03/08 01:49:49;;;;;;;10.30;6.13;;;;;;;;;;5031683;28;20037;-69
2022/03/08 01:52:16;;;;;;;12.45;6.63;;;;;;;;;;5031702;28;20500;-68
2022/03/08 01:54:43;;;;;;;10.48;5.93;;;;;;;;;;5032050;28;20083;-69
2022/03/08 01:57:09;;;;;;;10.23;6.18;;;;;;;;;;5032172;28;20028;-63
2022/03/08 01:59:35;;;;;;;9.52;5.90;;;;;;;;;;5031803;28;20022;-65
2022/03/08 02:02:02;;;;;;;9.57;5.72;;;;;;;;;;5032294;28;20354;-68
2022/03/08 02:04:28;;;;;;;10.15;6.13;;;;;;;;;;5031905;28;20477;-66
2022/03/08 02:06:55;;;;;;;9.88;6.28;;;;;;;;;;5031869;28;20033;-68
2022/03/08 02:09:21;;;;;;;11.90;6.18;;;;;;;;;;5047487;28;20037;-66
2022/03/08 02:11:48;;;;;;;9.10;5.75;;;;;;;;;;5051770;28;20025;-69
2022/03/08 02:14:17;;;;;;;12.30;6.40;;;;;;;;;;5051778;28;20025;-66
2022/03/08 02:16:43;;;;;;;11.00;5.93;;;;;;;;;;5051768;28;20017;-70
2022/03/08 02:19:13;;;;;;;9.27;5.55;;;;;;;;;;5051699;28;20046;-66
2022/03/08 02:21:39;;;;;;;11.35;6.13;;;;;;;;;;5051746;28;20025;-68
2022/03/08 02:24:06;;;;;;;9.13;5.55;;;;;;;;;;5051565;28;20021;-69
2022/03/08 02:26:32;;;;;;;10.73;6.28;;;;;;;;;;5051971;28;20098;-67
2022/03/08 02:29:03;;;;;;;8.68;5.47;;;;;;;;;;5055176;28;20041;-70
2022/03/08 02:31:29;;;;;;;8.82;5.45;;;;;;;;;;5070599;28;20171;-70
2022/03/08 02:33:55;;;;;;;11.82;6.25;;;;;;;;;;5070598;28;20013;-71
2022/03/08 02:36:21;;;;;;;9.98;5.88;;;;;;;;;;5055153;28;20100;-65
2022/03/08 02:38:47;;;;;;;10.60;5.97;;;;;;;;;;5055046;28;20049;-67
2022/03/08 02:41:13;;;;;;;8.73;5.38;;;;;;;;;;5055118;28;20024;-67
2022/03/08 02:43:39;;;;;;;9.70;5.75;;;;;;;;;;5055193;28;20109;-70
2022/03/08 02:46:05;;;;;;;10.13;5.75;;;;;;;;;;5055152;28;20025;-68
2022/03/08 02:48:32;;;;;;;10.63;5.70;;;;;;;;;;5054948;28;20429;-65
2022/03/08 02:50:58;;;;;;;9.35;5.63;;;;;;;;;;5055056;28;20357;-70
2022/03/08 02:53:24;;;;;;;10.10;5.32;;;;;;;;;;5055001;28;20537;-65
2022/03/08 02:55:50;;;;;;;10.48;5.63;;;;;;;;;;5054964;28;20025;-70
2022/03/08 02:58:17;;;;;;;10.40;5.72;;;;;;;;;;5054807;28;20052;-66
2022/03/08 03:00:43;;;;;;;8.48;5.30;;;;;;;;;;5054430;28;20108;-64
2022/03/08 03:03:09;;;;;;;10.23;5.80;;;;;;;;;;5054533;28;20021;-67
2022/03/08 03:05:36;;;;;;;13.35;5.38;;;;;;;;;;5054547;28;20032;-67
2022/03/08 03:08:02;;;;;;;9.63;5.68;;;;;;;;;;5056759;28;20104;-63
2022/03/08 03:10:29;;;;;;;9.57;5.38;;;;;;;;;;5060950;28;20024;-63
2022/03/08 03:12:56;;;;;;;9.65;5.53;;;;;;;;;;5055185;28;20074;-63
2022/03/08 03:15:23;;;;;;;9.48;4.90;;;;;;;;;;5069820;28;20035;-68
2022/03/08 03:17:49;;;;;;;8.25;5.13;;;;;;;;;;5054164;28;20020;-66
2022/03/08 03:20:17;;;;;;;9.35;5.65;;;;;;;;;;5054409;28;20028;-65
2022/03/08 03:22:43;;;;;;;10.23;5.18;;;;;;;;;;5054494;28;20468;-67
2022/03/08 03:25:10;;;;;;;8.65;4.72;;;;;;;;;;5054290;28;20112;-62
2022/03/08 03:27:36;;;;;;;9.25;5.18;;;;;;;;;;5054112;28;20021;-64
2022/03/08 03:30:04;;;;;;;10.80;5.57;;;;;;;;;;5053993;28;20029;-66
2022/03/08 03:32:30;;;;;;;9.75;5.47;;;;;;;;;;5053989;28;20110;-67
2022/03/08 03:34:56;;;;;;;8.40;4.60;;;;;;;;;;5054322;28;20035;-67
2022/03/08 03:37:23;;;;;;;9.68;5.25;;;;;;;;;;5053562;28;20029;-67
2022/03/08 03:39:50;;;;;;;8.30;4.97;;;;;;;;;;5054049;28;20502;-67
2022/03/08 03:42:16;;;;;;;9.90;5.80;;;;;;;;;;5053885;28;20032;-69
2022/03/08 03:44:42;;;;;;;7.57;4.57;;;;;;;;;;5053798;28;20049;-66
2022/03/08 03:47:08;;;;;;;9.30;5.82;;;;;;;;;;5053739;28;20128;-64
2022/03/08 03:49:34;;;;;;;9.43;5.68;;;;;;;;;;5037500;28;20536;-68
2022/03/08 03:52:00;;;;;;;8.60;4.93;;;;;;;;;;5033994;28;20018;-69
2022/03/08 03:54:27;;;;;;;7.85;4.90;;;;;;;;;;5033872;28;20029;-69
2022/03/08 03:56:53;;;;;;;11.20;6.07;;;;;;;;;;5033841;28;20022;-64
2022/03/08 03:59:19;;;;;;;9.15;5.18;;;;;;;;;;5033766;28;20017;-69
2022/03/08 04:01:45;;;;;;;8.23;4.60;;;;;;;;;;5033675;28;20464;-66
2022/03/08 04:04:11;;;;;;;10.43;5.20;;;;;;;;;;5033719;28;20037;-64
2022/03/08 04:06:37;;;;;;;9.07;5.40;;;;;;;;;;5033025;28;20097;-68
2022/03/08 04:09:05;;;;;;;7.80;4.68;;;;;;;;;;5035385;28;20037;-67
2022/03/08 04:11:31;;;;;;;9.93;5.13;;;;;;;;;;5033428;28;20108;-68
2022/03/08 04:13:57;;;;;;;10.00;5.60;;;;;;;;;;5048767;28;20025;-66
2022/03/08 04:16:23;;;;;;;9.68;6.13;;;;;;;;;;5033550;28;20029;-67
2022/03/08 04:18:49;;;;;;;11.50;5.50;;;;;;;;;;5033581;28;20079;-65
2022/03/08 04:21:15;;;;;;;10.25;5.95;;;;;;;;;;5033298;28;20022;-67
2022/03/08 04:23:41;;;;;;;8.60;5.50;;;;;;;;;;5033236;28;20476;-66
2022/03/08 04:26:07;;;;;;;10.07;5.68;;;;;;;;;;5033066;28;20520;-68
2022/03/08 04:28:34;;;;;;;10.35;5.55;;;;;;;;;;5033047;28;20418;-68
2022/03/08 04:31:00;;;;;;;10.93;5.70;;;;;;;;;;5032944;28;20376;-69
2022/03/08 04:33:26;;;;;;;8.80;5.40;;;;;;;;;;5033081;28;20130;-70
2022/03/08 04:35:52;;;;;;;11.40;5.60;;;;;;;;;;5033315;28;20033;-71
2022/03/08 04:38:18;;;;;;;8.63;4.93;;;;;;;;;;5032946;28;20041;-71
2022/03/08 04:40:44;;;;;;;9.30;5.60;;;;;;;;;;5033200;28;20075;-64
2022/03/08 04:43:10;;;;;;;10.15;5.45;;;;;;;;;;5032879;28;20049;-67
2022/03/08 04:45:36;;;;;;;10.07;5.70;;;;;;;;;;5032763;28;20028;-70
2022/03/08 04:48:02;;;;;;;8.73;5.07;;;;;;;;;;5032718;28;20035;-70
2022/03/08 04:50:28;;;;;;;7.40;4.63;;;;;;;;;;5031953;28;20092;-70
2022/03/08 04:52:54;;;;;;;10.18;5.70;;;;;;;;;;5032727;28;20092;-68
2022/03/08 04:55:21;;;;;;;9.85;5.28;;;;;;;;;;5032823;28;20424;-68
2022/03/08 04:57:47;;;;;;;11.85;5.60;;;;;;;;;;5032679;28;20048;-66
2022/03/08 05:00:14;;;;;;;8.95;4.82;;;;;;;;;;5032537;28;20100;-70
2022/03/08 05:02:44;;;;;;;8.63;5.30;;;;;;;;;;5032687;28;20052;-69
2022/03/08 05:05:10;;;;;;;10.30;4.95;;;;;;;;;;5032949;28;20106;-70
2022/03/08 05:07:37;;;;;;;9.55;5.15;;;;;;;;;;5032430;28;20424;-65
2022/03/08 05:10:04;;;;;;;10.95;5.53;;;;;;;;;;5032553;28;20108;-68
2022/03/08 05:12:30;;;;;;;7.72;4.78;;;;;;;;;;5032338;28;20051;-64
2022/03/08 05:14:56;;;;;;;9.93;5.30;;;;;;;;;;5032675;28;20025;-67
2022/03/08 05:17:22;;;;;;;9.38;4.90;;;;;;;;;;5032395;28;20017;-67
2022/03/08 05:19:48;;;;;;;9.70;5.53;;;;;;;;;;5032429;28;20404;-62
2022/03/08 05:22:15;;;;;;;10.10;5.28;;;;;;;;;;5032314;28;20021;-65
2022/03/08 05:24:41;;;;;;;10.07;5.13;;;;;;;;;;5032270;28;20431;-66
2022/03/08 05:27:07;;;;;;;9.18;5.20;;;;;;;;;;5047536;28;20108;-68
2022/03/08 05:29:34;;;;;;;8.88;5.53;;;;;;;;;;5031985;28;20080;-65
2022/03/08 05:32:00;;;;;;;9.73;5.45;;;;;;;;;;5031914;28;20622;-69
2022/03/08 05:34:27;;;;;;;9.20;5.07;;;;;;;;;;5032334;28;20459;-69
2022/03/08 05:36:53;;;;;;;8.02;4.75;;;;;;;;;;5032300;28;20049;-70
2022/03/08 05:39:19;;;;;;;8.48;4.70;;;;;;;;;;5032046;28;20091;-66
2022/03/08 05:41:45;;;;;;;10.07;4.90;;;;;;;;;;5034896;28;20021;-64
2022/03/08 05:44:11;;;;;;;10.13;6.03;;;;;;;;;;5035068;28;20030;-68
2022/03/08 05:46:37;;;;;;;9.35;5.38;;;;;;;;;;5032087;28;20029;-65
2022/03/08 05:49:03;;;;;;;8.65;5.32;;;;;;;;;;5031957;28;20473;-64
2022/03/08 05:51:29;;;;;;;9.32;5.50;;;;;;;;;;5032083;28;20089;-65
2022/03/08 05:53:55;;;;;;;10.80;5.88;;;;;;;;;;5032074;28;20044;-64
2022/03/08 05:56:22;;;;;;;13.02;5.90;;;;;;;;;;5031867;28;20028;-64
2022/03/08 05:58:48;;;;;;;10.75;5.95;;;;;;;;;;5031969;28;20029;-66
2022/03/08 06:01:14;;;;;;;10.57;5.88;;;;;;;;;;5033295;28;20032;-66
2022/03/08 06:03:40;;;;;;;11.57;5.63;;;;;;;;;;5050028;28;20115;-64
2022/03/08 06:06:06;;;;;;;9.68;5.22;;;;;;;;;;5054465;28;20021;-70
2022/03/08 06:08:32;;;;;;;10.75;5.45;;;;;;;;;;5048346;28;20061;-66
2022/03/08 06:10:58;;;;;;;8.88;4.95;;;;;;;;;;5047266;28;20103;-67
2022/03/08 06:13:24;;;;;;;10.52;5.55;;;;;;;;;;5055726;28;20052;-64
2022/03/08 06:15:50;;;;;;;7.93;4.40;;;;;;;;;;5055519;28;20009;-66
2022/03/08 06:18:16;;;;;;;9.13;5.28;;;;;;;;;;5055284;28;20028;-67
2022/03/08 06:20:43;;;;;;;10.38;4.65;;;;;;;;;;5070681;28;20021;-68
2022/03/08 06:23:09;;;;;;;9.68;5.10;;;;;;;;;;5055462;28;20029;-66
2022/03/08 06:25:35;;;;;;;8.88;5.20;;;;;;;;;;5070913;28;20017;-66
2022/03/08 06:28:01;;;;;;;9.63;5.50;;;;;;;;;;5055237;28;20225;-65
2022/03/08 06:30:27;;;;;;;9.48;5.53;;;;;;;;;;5054523;28;20053;-66
2022/03/08 06:32:53;;;;;;;9.63;5.00;;;;;;;;;;5070726;28;20025;-62
2022/03/08 06:35:19;;;;;;;9.93;5.43;;;;;;;;;;5054576;28;20388;-61
2022/03/08 06:37:46;;;;;;;11.23;5.30;;;;;;;;;;5054776;28;20040;-64
2022/03/08 06:40:12;;;;;;;12.85;5.22;;;;;;;;;;5054867;28;20033;-66
2022/03/08 06:42:38;;;;;;;13.57;5.35;;;;;;;;;;5054694;28;20025;-62
2022/03/08 06:45:05;;;;;;;10.68;5.13;;;;;;;;;;5044689;28;20030;-65
2022/03/08 06:47:31;;;;;;;12.55;5.35;;;;;;;;;;5049937;28;20032;-66
2022/03/08 06:49:57;;;;;;;7.78;4.97;;;;;;;;;;5037335;28;20036;-67
2022/03/08 06:52:24;;;;;;;12.10;5.22;;;;;;;;;;5054326;28;20475;-68
2022/03/08 06:54:50;;;;;;;9.48;5.40;;;;;;;;;;5054368;28;20025;-62
2022/03/08 06:57:16;;;;;;;8.73;5.22;;;;;;;;;;5054473;28;20103;-66
2022/03/08 07:02:45;;;;;;;13.27;5.97;;;;;;;;;;5034727;28;20116;-63
2022/03/08 07:05:12;;;;;;;12.15;5.22;;;;;;;;;;5034297;28;20017;-65
2022/03/08 07:07:38;;;;;;;13.27;5.18;;;;;;;;;;5034188;28;20029;-64
2022/03/08 07:10:05;;;;;;;10.55;5.47;;;;;;;;;;5034215;28;20029;-62
2022/03/08 07:12:31;;;;;;;12.25;5.80;;;;;;;;;;5033487;28;20422;-69
2022/03/08 07:14:57;;;;;;;13.25;5.60;;;;;;;;;;5033869;28;20044;-65
2022/03/08 07:17:23;;;;;;;11.32;5.80;;;;;;;;;;5033899;28;20029;-69
2022/03/08 07:19:50;;;;;;;9.55;5.55;;;;;;;;;;5034010;28;20392;-69
2022/03/08 07:22:17;;;;;;;9.45;5.07;;;;;;;;;;5033994;28;20021;-69
2022/03/08 07:24:43;;;;;;;11.23;5.90;;;;;;;;;;5034139;28;20060;-68
2022/03/08 07:27:10;;;;;;;11.13;5.82;;;;;;;;;;5033905;28;20030;-67
2022/03/08 07:29:36;;;;;;;11.95;6.30;;;;;;;;;;5033577;28;20427;-68
2022/03/08 07:32:03;;;;;;;11.82;5.72;;;;;;;;;;5033766;28;20043;-69
2022/03/08 07:34:29;;;;;;;12.68;6.68;;;;;;;;;;5033920;28;20026;-69
2022/03/08 07:36:55;;;;;;;10.07;5.93;;;;;;;;;;5033635;28;20029;-68
2022/03/08 07:39:21;;;;;;;13.57;7.05;;;;;;;;;;5033301;28;20049;-69
2022/03/08 07:41:47;;;;;;;12.35;6.03;;;;;;;;;;5033689;28;20040;-63
2022/03/08 07:44:13;;;;;;;10.85;5.63;;;;;;;;;;5033434;28;20043;-68
2022/03/08 07:46:39;;;;;;;12.93;6.72;;;;;;;;;;5033740;28;20018;-68
2022/03/08 07:49:05;;;;;;;12.68;7.50;;;;;;;;;;5033448;28;20108;-69
2022/03/08 07:51:32;;;;;;;13.50;6.28;;;;;;;;;;5033618;28;20523;-68
2022/03/08 07:53:59;;;;;;;11.13;6.78;;;;;;;;;;5033443;28;20384;-64
2022/03/08 07:56:25;;;;;;;12.93;7.43;;;;;;;;;;5033414;28;20032;-69
2022/03/08 07:58:52;;;;;;;11.18;6.60;;;;;;;;;;5033264;28;20041;-69
2022/03/08 08:01:18;;;;;;;10.30;6.40;;;;;;;;;;5048543;28;20109;-69
2022/03/08 08:03:44;;;;;;;12.55;6.53;;;;;;;;;;5033197;28;20033;-66
2022/03/08 08:06:10;;;;;;;13.73;7.18;;;;;;;;;;5033124;28;20017;-65
2022/03/08 08:08:36;;;;;;;11.63;7.07;;;;;;;;;;5033092;28;20144;-61
2022/03/08 08:11:03;;;;;;;11.10;6.20;;;;;;;;;;5048456;28;20021;-61
2022/03/08 08:13:29;;;;;;;11.50;6.57;;;;;;;;;;5032759;28;20068;-69
2022/03/08 08:15:55;;;;;;;13.18;7.20;;;;;;;;;;5033234;28;20021;-68
2022/03/08 08:18:21;;;;;;;12.02;6.13;;;;;;;;;;5032861;28;20028;-67
2022/03/08 08:20:47;;;;;;;9.27;6.15;;;;;;;;;;5032721;28;20060;-69
2022/03/08 08:23:13;;;;;;;11.65;6.97;;;;;;;;;;5033132;28;20134;-66
2022/03/08 08:25:39;;;;;;;9.73;5.20;;;;;;;;;;5032115;28;20033;-64
2022/03/08 08:28:06;;;;;;;10.75;5.88;;;;;;;;;;5032721;28;20041;-61
2022/03/08 08:30:33;;;;;;;9.50;5.60;;;;;;;;;;5033326;28;20018;-69
2022/03/08 08:33:00;;;;;;;9.07;5.05;;;;;;;;;;5032993;28;20036;-69
2022/03/08 08:35:26;;;;;;;23.80;6.53;;;;;;;;;;5054467;28;20025;-69
2022/03/08 08:37:52;;;;;;;19.38;6.32;;;;;;;;;;5031933;28;20084;-65
2022/03/08 08:40:18;;;;;;;17.70;5.68;;;;;;;;;;5030656;28;20040;-66
2022/03/08 08:42:44;;;;;;;14.50;6.10;;;;;;;;;;5032676;28;20094;-69
2022/03/08 08:45:10;;;;;;;11.05;5.85;;;;;;;;;;5032502;28;20188;-69
2022/03/08 08:47:37;;;;;;;9.52;5.03;;;;;;;;;;5032701;28;20065;-69
2022/03/08 08:50:03;;;;;;;10.48;5.88;;;;;;;;;;5032517;28;20033;-67
2022/03/08 08:52:29;;;;;;;11.68;5.78;;;;;;;;;;5032449;28;20024;-69
2022/03/08 08:54:55;;;;;;;8.48;4.88;;;;;;;;;;5032338;28;20488;-65
2022/03/08 08:57:21;;;;;;;11.43;5.28;;;;;;;;;;5032482;28;20112;-67
2022/03/08 08:59:48;;;;;;;11.18;5.05;;;;;;;;;;5041169;28;20503;-69
2022/03/08 09:02:14;;;;;;;12.25;5.40;;;;;;;;;;5050761;28;20079;-70
2022/03/08 09:04:41;;;;;;;8.70;4.88;;;;;;;;;;5041538;28;20025;-61
2022/03/08 09:07:10;;;;;;;9.00;5.05;;;;;;;;;;5041531;28;20542;-69
2022/03/08 09:09:36;;;;;;;12.30;4.72;;;;;;;;;;5031320;28;20112;-68
2022/03/08 09:12:02;;;;;;;9.05;5.30;;;;;;;;;;5031518;28;20021;-70
2022/03/08 09:14:28;;;;;;;9.00;4.70;;;;;;;;;;5047248;28;20031;-69
2022/03/08 09:16:54;;;;;;;8.07;4.15;;;;;;;;;;5031939;28;20022;-69
2022/03/08 09:19:20;;;;;;;9.43;4.47;;;;;;;;;;5047258;28;20132;-69
2022/03/08 09:21:46;;;;;;;10.20;4.97;;;;;;;;;;5032523;28;20017;-69
2022/03/08 09:24:13;;;;;;;8.30;4.63;;;;;;;;;;5040189;28;20103;-69
2022/03/08 09:26:39;;;;;;;12.43;5.03;;;;;;;;;;5050334;28;20070;-66
2022/03/08 09:29:05;;;;;;;8.38;4.55;;;;;;;;;;5048554;28;20048;-63
2022/03/08 09:31:31;;;;;;;10.38;4.40;;;;;;;;;;5038899;28;20017;-69
2022/03/08 09:33:57;;;;;;;8.13;4.28;;;;;;;;;;5066867;28;20029;-69
2022/03/08 09:36:23;;;;;;;9.52;4.00;;;;;;;;;;5050897;28;20025;-68
2022/03/08 09:38:49;;;;;;;8.63;4.95;;;;;;;;;;5051469;28;20049;-66
2022/03/08 09:41:15;;;;;;;7.63;4.10;;;;;;;;;;5051742;28;20581;-65
2022/03/08 09:43:42;;;;;;;7.45;4.15;;;;;;;;;;5051894;28;20029;-64
2022/03/08 09:46:08;;;;;;;7.72;3.83;;;;;;;;;;5051808;28;20104;-64
2022/03/08 09:48:35;;;;;;;7.85;3.78;;;;;;;;;;5051733;28;20033;-70
2022/03/08 09:51:02;;;;;;;6.05;3.90;;;;;;;;;;5051845;28;20088;-66
2022/03/08 09:53:29;;;;;;;8.57;4.72;;;;;;;;;;5051425;28;20029;-62
2022/03/08 09:56:03;;;;;;;6.80;3.70;;;;;;;;;;5051648;28;20387;-67
2022/03/08 09:58:29;;;;;;;8.25;4.60;;;;;;;;;;5051575;28;20021;-69
2022/03/08 10:00:59;;;;;;;6.40;3.65;;;;;;;;;;5051805;28;20021;-60
2022/03/08 10:03:35;;;;;;;8.90;4.00;;;;;;;;;;5051783;28;20059;-61
2022/03/08 10:06:03;;;;;;;6.97;4.03;;;;;;;;;;5051738;28;20024;-62
2022/03/08 10:08:29;;;;;;;7.30;3.85;;;;;;;;;;5051480;28;20029;-66
2022/03/08 10:11:06;;;;;;;8.05;4.28;;;;;;;;;;5051468;28;20025;-70
2022/03/08 10:13:35;;;;;;;7.55;4.20;;;;;;;;;;5051472;28;20024;-69
2022/03/08 10:16:04;;;;;;;8.88;3.95;;;;;;;;;;5051975;28;20433;-70
2022/03/08 10:18:35;;;;;;;8.10;4.07;;;;;;;;;;5051293;28;20578;-70
2022/03/08 10:21:01;;;;;;;7.07;3.88;;;;;;;;;;5051461;28;20067;-69
2022/03/08 10:23:27;;;;;;;6.40;3.70;;;;;;;;;;5051618;28;20082;-69
2022/03/08 10:25:53;;;;;;;7.13;4.47;;;;;;;;;;5051527;28;20104;-69
2022/03/08 10:28:19;;;;;;;7.55;4.00;;;;;;;;;;5051260;28;20074;-61
2022/03/08 10:30:45;;;;;;;10.10;4.07;;;;;;;;;;5034206;28;20022;-61
2022/03/08 10:33:12;;;;;;;6.47;3.70;;;;;;;;;;5031604;28;20029;-70
2022/03/08 10:35:39;;;;;;;7.70;3.38;;;;;;;;;;5046986;28;20444;-63
2022/03/08 10:38:08;;;;;;;7.20;3.67;;;;;;;;;;5031270;28;20091;-63
2022/03/08 10:40:34;;;;;;;6.30;3.50;;;;;;;;;;5031514;28;20018;-64
2022/03/08 10:43:01;;;;;;;7.57;3.72;;;;;;;;;;5046780;28;20500;-61
2022/03/08 10:45:28;;;;;;;5.35;3.33;;;;;;;;;;5031322;28;20415;-69
2022/03/08 10:47:55;;;;;;;7.13;3.50;;;;;;;;;;5032526;28;20119;-63
2022/03/08 10:50:25;;;;;;;7.45;3.60;;;;;;;;;;5034978;28;20029;-71
2022/03/08 10:52:55;;;;;;;8.95;3.63;;;;;;;;;;5035027;28;20492;-69
2022/03/08 10:55:31;;;;;;;7.00;3.58;;;;;;;;;;5035347;28;20503;-65
2022/03/08 10:57:58;;;;;;;6.68;3.30;;;;;;;;;;5054577;28;20090;-67
2022/03/08 11:00:28;;;;;;;6.75;3.67;;;;;;;;;;5053997;28;20432;-61
2022/03/08 11:02:59;;;;;;;9.52;3.55;;;;;;;;;;5054615;28;20504;-63
2022/03/08 11:05:27;;;;;;;7.60;3.75;;;;;;;;;;5054753;28;20112;-69
2022/03/08 11:07:54;;;;;;;5.68;3.38;;;;;;;;;;5041182;28;20028;-61
2022/03/08 11:10:21;;;;;;;7.47;3.45;;;;;;;;;;5034454;28;20551;-62
2022/03/08 11:12:48;;;;;;;6.75;3.35;;;;;;;;;;5040332;28;20017;-62
2022/03/08 11:15:16;;;;;;;5.25;2.92;;;;;;;;;;5054003;28;20025;-61
2022/03/08 11:17:46;;;;;;;5.40;2.92;;;;;;;;;;5054053;28;20082;-62
2022/03/08 11:20:13;;;;;;;10.27;3.42;;;;;;;;;;5053896;28;20078;-65
2022/03/08 11:22:40;;;;;;;19.45;2.97;;;;;;;;;;5053860;28;20085;-62
2022/03/08 11:25:07;;;;;;;6.63;2.80;;;;;;;;;;5046346;28;20433;-62
2022/03/08 11:27:35;;;;;;;6.53;2.80;;;;;;;;;;5033589;28;20044;-65
2022/03/08 11:30:01;;;;;;;10.75;3.42;;;;;;;;;;5033499;28;20029;-64
2022/03/08 11:33:03;;;;;;;7.75;3.20;;;;;;;;;;5034075;28;20510;-64
2022/03/08 11:35:29;;;;;;;8.10;2.85;;;;;;;;;;5011521;28;20512;-63
2022/03/08 11:37:55;;;;;;;4.95;2.47;;;;;;;;;;5029296;28;20026;-62
2022/03/08 11:40:22;;;;;;;5.93;3.13;;;;;;;;;;5033918;28;20117;-63
2022/03/08 11:42:51;;;;;;;6.18;2.92;;;;;;;;;;5033673;28;20060;-65
2022/03/08 11:45:19;;;;;;;5.35;2.88;;;;;;;;;;5033653;28;20032;-66
2022/03/08 11:47:45;;;;;;;5.28;2.53;;;;;;;;;;5033740;28;20391;-61
2022/03/08 11:50:24;;;;;;;6.38;2.67;;;;;;;;;;5033163;28;20495;-66
2022/03/08 11:52:51;;;;;;;4.78;2.38;;;;;;;;;;5033199;28;20022;-61
2022/03/08 11:55:24;;;;;;;5.35;2.58;;;;;;;;;;5033445;28;20037;-60
2022/03/08 11:57:50;;;;;;;;;;;;;;;;;;5034003;28;20068;-63
2022/03/08 12:00:19;;;;;;;7.80;3.20;;;;;;;;;;5032691;28;20352;-62
2022/03/08 12:02:50;;;;;;;5.28;2.58;;;;;;;;;;5033052;28;20030;-61
2022/03/08 12:05:52;;;;;;;7.88;2.95;;;;;;;;;;5033397;28;20057;-69
2022/03/08 12:08:30;;;;;;;7.68;2.92;;;;;;;;;;5010677;28;20025;-70
2022/03/08 12:11:00;;;;;;;10.18;4.15;;;;;;;;;;5027018;28;20083;-69
2022/03/08 12:13:31;;;;;;;7.15;2.70;;;;;;;;;;5033150;28;20016;-62
2022/03/08 12:16:09;;;;;;;8.68;3.30;;;;;;;;;;5036351;28;20589;-68
2022/03/08 12:18:35;;;;;;;9.52;4.20;;;;;;;;;;5053061;28;20488;-64
2022/03/08 12:21:16;;;;;;;11.88;3.88;;;;;;;;;;5053162;28;20025;-64
2022/03/08 12:24:01;;;;;;;9.48;3.92;;;;;;;;;;5052924;28;20025;-65
2022/03/08 12:26:30;;;;;;;8.40;3.40;;;;;;;;;;5052163;28;20082;-62
2022/03/08 12:29:07;;;;;;;7.10;3.40;;;;;;;;;;5036615;28;20117;-70
2022/03/08 12:31:34;;;;;;;16.50;4.20;;;;;;;;;;5036062;28;20021;-69
2022/03/08 12:34:07;;;;;;;9.30;3.40;;;;;;;;;;5052766;28;20060;-70
2022/03/08 12:36:33;;;;;;;;;;;;;;;;;;5068662;28;20021;-70
2022/03/08 12:38:59;;;;;;;8.88;3.53;;;;;;;;;;5052347;28;19999;-70
2022/03/08 12:41:28;;;;;;;9.45;3.80;;;;;;;;;;5052723;28;20078;-65
2022/03/08 12:43:58;;;;;;;8.18;3.33;;;;;;;;;;5052648;28;20021;-62
2022/03/08 12:46:24;;;;;;;8.00;3.60;;;;;;;;;;5052942;28;20025;-63
2022/03/08 12:48:52;;;;;;;8.77;3.15;;;;;;;;;;5052344;28;20029;-63
2022/03/08 12:51:20;;;;;;;7.72;3.40;;;;;;;;;;5052525;28;20531;-68
2022/03/08 12:53:50;;;;;;;7.80;3.15;;;;;;;;;;5052413;28;20021;-70
2022/03/08 12:56:18;;;;;;;7.63;3.13;;;;;;;;;;5052429;28;20013;-70
2022/03/08 12:58:44;;;;;;;7.75;2.95;;;;;;;;;;5067565;28;20028;-66
2022/03/08 13:01:11;;;;;;;6.72;3.03;;;;;;;;;;5052521;28;20675;-65
2022/03/08 13:03:41;;;;;;;7.20;3.17;;;;;;;;;;5052493;28;20033;-68
2022/03/08 13:06:08;;;;;;;6.35;2.83;;;;;;;;;;5052377;28;20036;-63
2022/03/08 13:08:35;;;;;;;6.10;2.83;;;;;;;;;;5052104;28;20032;-63
2022/03/08 13:11:06;;;;;;;5.90;2.70;;;;;;;;;;5051635;28;20021;-65
2022/03/08 13:13:33;;;;;;;7.15;2.85;;;;;;;;;;5052123;28;20433;-68
2022/03/08 13:15:59;;;;;;;6.38;3.10;;;;;;;;;;5052239;28;20538;-66
2022/03/08 13:18:30;;;;;;;5.57;2.47;;;;;;;;;;5052096;28;20381;-69
2022/03/08 13:20:57;;;;;;;5.70;2.83;;;;;;;;;;5052011;28;20027;-68
2022/03/08 13:23:25;;;;;;;8.95;3.03;;;;;;;;;;5051797;28;20136;-66
2022/03/08 13:26:00;;;;;;;6.38;2.47;;;;;;;;;;5051817;28;20021;-65
2022/03/08 13:28:27;;;;;;;4.40;2.20;;;;;;;;;;5051450;28;20031;-64
2022/03/08 13:30:54;;;;;;;4.97;2.30;;;;;;;;;;5050617;28;20460;-66
2022/03/08 13:33:28;;;;;;;5.75;2.75;;;;;;;;;;5051664;28;20108;-68
2022/03/08 13:35:56;;;;;;;9.52;2.97;;;;;;;;;;5051863;28;20021;-69
2022/03/08 13:38:29;;;;;;;5.43;2.10;;;;;;;;;;5051566;28;20087;-68
2022/03/08 13:40:57;;;;;;;6.57;2.72;;;;;;;;;;5051604;28;20029;-66
2022/03/08 13:43:23;;;;;;;6.15;2.75;;;;;;;;;;5051800;28;20033;-67
2022/03/08 13:45:49;;;;;;;9.05;3.08;;;;;;;;;;5051114;28;20048;-68
2022/03/08 13:48:17;;;;;;;12.23;2.78;;;;;;;;;;5051284;28;20530;-64
2022/03/08 13:50:46;;;;;;;8.38;2.83;;;;;;;;;;5051909;28;20092;-68
2022/03/08 13:53:13;;;;;;;9.38;2.95;;;;;;;;;;5050294;28;20537;-69
2022/03/08 13:55:40;;;;;;;8.20;2.38;;;;;;;;;;5051924;28;20021;-69
2022/03/08 13:58:19;;;;;;;9.15;2.85;;;;;;;;;;5051480;28;20017;-66
2022/03/08 14:00:46;;;;;;;11.27;2.42;;;;;;;;;;5051629;28;20025;-68
2022/03/08 14:03:14;;;;;;;10.63;2.83;;;;;;;;;;5051502;28;20472;-68
2022/03/08 14:05:49;;;;;;;5.63;2.38;;;;;;;;;;5051656;28;20033;-69
2022/03/08 14:08:26;;;;;;;6.88;2.92;;;;;;;;;;5051234;28;20060;-68
2022/03/08 14:10:53;;;;;;;5.35;2.25;;;;;;;;;;5051603;28;20040;-69
2022/03/08 14:13:20;;;;;;;12.90;2.65;;;;;;;;;;5051558;28;20491;-66
2022/03/08 14:16:12;;;;;;;4.90;2.38;;;;;;;;;;5051574;28;20021;-68
2022/03/08 14:19:08;;;;;;;6.35;2.80;;;;;;;;;;5050173;28;20045;-69
2022/03/08 14:21:38;;;;;;;5.15;2.45;;;;;;;;;;5045612;28;20421;-69
2022/03/08 14:24:13;;;;;;;6.10;2.45;;;;;;;;;;5054093;28;20051;-69
2022/03/08 14:26:40;;;;;;;5.35;2.40;;;;;;;;;;5043939;28;20477;-68
2022/03/08 14:29:13;;;;;;;5.93;2.55;;;;;;;;;;5035134;28;20041;-66
2022/03/08 14:31:40;;;;;;;6.28;2.80;;;;;;;;;;5043439;28;20025;-69
2022/03/08 14:34:09;;;;;;;4.65;2.40;;;;;;;;;;5055290;28;20029;-67
2022/03/08 14:36:47;;;;;;;5.82;2.63;;;;;;;;;;5055108;28;20028;-69
2022/03/08 14:39:15;;;;;;;6.10;2.83;;;;;;;;;;5054880;28;20052;-67
2022/03/08 14:41:51;;;;;;;4.82;2.40;;;;;;;;;;5055211;28;20496;-69
2022/03/08 14:44:17;;;;;;;5.72;2.63;;;;;;;;;;5055303;28;20021;-65